Promised Land, New York
Current Conditions -  °F | °C
As of 1:56 AM on Wednesday 22 Oct 2014 (Local Time) from KGON Reporting Station
Broken Clouds Broken Clouds  
Wind Chill: 13°   Ceiling: 1200
Heat Index: 13°   Visibility: 10mi
Dew Point: 12°   Wind: 18mph
Humidity: 90%   Direction: 40°NE
Pressure: 29.91"   Gusts: NA
Location:  40.9764°N, 72.1316°W
Report Text: KGON 220556Z AUTO 04016KT 10SM BKN012 13/12 A2991 RMK AO2 SLP127 60000 T01330117 10150 20133 58007
Loading
Personal Weather Stations






























Interactive Weather Map
Tropical Storm Tracking
New forecast layout! Learn more

10-Day Weather Forecast

Advertisements
Track Severe Weather on mobile